This is the latest recevied weather packets stored in our database for station/object EA5LU-10. If no packets are shown the sender has not sent any weather packets the latest 10 day(s).
| Time | Temp. | Humidity | Pressure | Rain* | Wind** | Luminosity | Snow |
|---|---|---|---|---|---|---|---|
| 1777908256 | 31.11° C | 40% | 1001.6 hPa | - | - | - | - |
| 1777907355 | 31.11° C | 40% | 1001.6 hPa | - | - | - | - |
| 1777906454 | 30.56° C | 42% | 1001.6 hPa | - | - | - | - |
| 1777905553 | 31.11° C | 38% | 1001.7 hPa | - | - | - | - |
| 1777904653 | 31.67° C | 36% | 1001.8 hPa | - | - | - | - |
| 1777903752 | 30° C | 39% | 1002 hPa | - | - | - | - |
| 1777902851 | 30° C | 38% | 1002.1 hPa | - | - | - | - |
| 1777901950 | 29.44° C | 41% | 1002.1 hPa | - | - | - | - |
| 1777901049 | 28.33° C | 43% | 1002.2 hPa | - | - | - | - |
| 1777900149 | 28.89° C | 42% | 1002.3 hPa | - | - | - | - |
| 1777899248 | 28.33° C | 44% | 1002.4 hPa | - | - | - | - |
| 1777898347 | 27.78° C | 49% | 1002.7 hPa | - | - | - | - |
| 1777897446 | 26.67° C | 54% | 1002.9 hPa | - | - | - | - |
| 1777896545 | 26.67° C | 50% | 1003 hPa | - | - | - | - |
| 1777895644 | 26.11° C | 55% | 1003.1 hPa | - | - | - | - |
| 1777894744 | 26.11° C | 58% | 1003.3 hPa | - | - | - | - |
| 1777893843 | 25° C | 58% | 1003.4 hPa | - | - | - | - |
| 1777892942 | 25° C | 60% | 1003.7 hPa | - | - | - | - |
| 1777892041 | 25.56° C | 60% | 1003.9 hPa | - | - | - | - |
| 1777891140 | 24.44° C | 64% | 1004.1 hPa | - | - | - | - |
| 1777890239 | 24.44° C | 64% | 1004.1 hPa | - | - | - | - |
| 1777889339 | 23.89° C | 65% | 1004.2 hPa | - | - | - | - |
| 1777888438 | 24.44° C | 66% | 1004.3 hPa | - | - | - | - |
| 1777887537 | 24.44° C | 65% | 1004.1 hPa | - | - | - | - |
| 1777886636 | 25.56° C | 63% | 1004.2 hPa | - | - | - | - |
* Rain since midnight (hover to see other rain measurements)
** Current wind speed in m/s (hover to see current wind gust speed)